Airfield :
LOGIN :

Register | Disclaimer

   EN    FR    IT 

 










Legend :    VFR   Marginal VFR   IFR   Intensive IFR   Very Intensive IFR
Visi :
Ceiling :
>= 8 km
>= 3000ft
5 to 8 km
1000 to 3000 ft
1500m to 5 km
500 to 1000 ft
800 to 1500m
200 to 500 ft
< 800m
< 200 ft
Symbols :   Thunderstorms  Fog  Heavy snow  Heavy precipitations  Wind > 20 kt
SIGMETs :     Misc.  Thunderstorms  Icing  Turbulence  Mountain Waves  Volcanic Ashes






- Airport Elevation : 106 ft
- IATA code : NRN


EDLV - Weeze

CURRENT METAR :
  • 241250Z VRB03KT 2300 BR BKN002 01/01 Q1023

EXPIRED METARs :
  • 241220Z 20005KT 150V240 2000 BR BKN002 01/01 Q1023
  • 241150Z VRB02KT 2800 BR SCT001 01/01 Q1024
  • 241120Z 30004KT 270V330 1700 -DZ BR BKN001 01/01 Q1024
  • 241050Z VRB03KT 1500 -DZ BR BKN002 01/01 Q1024
  • 241020Z VRB03KT 1400 R27/P2000U -DZ BR OVC001 01/01 Q1024

TAF TAF EDLV
Valid from the 24 at 12:00 until the 25 at 12:00 UTC


241100Z 2412/2512 19003KT 2000 BR OVC002
BECMG 2412/2415 4000 BR BKN008
TEMPO 2421/2512 1200 BR OVC004



MET'MAP, your aeronautical weather chart ! - Copyright ORBIFLY December 2007 - Disclaimer

ORBIFLY MET'MAP TEAM :

Programming & Development : Alexandra Zaïnal
Concept & original design : Baudouin d'Aumeries
Assistance for programming : Marc-Olivier Méhu
Technical & hardware support : Manuel Goepfert

Contact : metmap@orbifly.com




SOURCES & CREDITS :

   NOAA